createdAt,value
2019-01-11T00:02:26.381Z,5.20
2019-01-11T00:05:15.736Z,5.07
2019-01-11T00:08:05.305Z,4.93
2019-01-11T00:10:54.663Z,4.93
2019-01-11T00:13:44.033Z,5.03
2019-01-11T00:16:33.401Z,5.20
2019-01-11T00:19:22.685Z,5.10
2019-01-11T00:22:12.076Z,4.87
2019-01-11T00:25:01.432Z,4.60
2019-01-11T00:27:50.778Z,4.83
2019-01-11T00:30:40.149Z,4.77
2019-01-11T00:33:29.463Z,4.67
2019-01-11T00:36:11.445Z,4.60
2019-01-11T00:38:53.837Z,5.10
2019-01-11T00:41:36.233Z,4.53
2019-01-11T00:44:18.029Z,5.10
2019-01-11T00:46:59.756Z,4.83
2019-01-11T00:49:43.756Z,4.93
2019-01-11T00:52:26.165Z,4.87
2019-01-11T00:55:08.225Z,5.60
2019-01-11T00:57:50.417Z,5.80
2019-01-11T01:00:32.775Z,5.83
2019-01-11T01:03:14.612Z,5.73
2019-01-11T01:05:56.681Z,5.63
2019-01-11T01:08:39.129Z,5.60
2019-01-11T01:11:21.400Z,5.33
2019-01-11T01:14:03.251Z,5.57
2019-01-11T01:16:45.424Z,5.40
2019-01-11T01:19:26.997Z,5.87
2019-01-11T01:22:09.268Z,5.77
2019-01-11T01:24:51.731Z,6.13
2019-01-11T01:27:34.144Z,5.87
2019-01-11T01:30:16.141Z,5.80
2019-01-11T01:32:57.715Z,5.73
2019-01-11T01:35:39.889Z,6.20
2019-01-11T01:38:22.078Z,5.93
2019-01-11T01:41:04.038Z,6.13
2019-01-11T01:43:46.262Z,6.27
2019-01-11T01:46:28.457Z,6.33
2019-01-11T01:49:10.704Z,6.13
2019-01-11T01:51:52.441Z,6.80
2019-01-11T01:54:34.224Z,7.00
2019-01-11T01:57:16.369Z,7.00
2019-01-11T01:59:58.551Z,7.10
2019-01-11T02:02:40.816Z,7.30
2019-01-11T02:05:23.173Z,6.30
2019-01-11T02:08:05.227Z,6.93
2019-01-11T02:10:47.041Z,6.33
2019-01-11T02:13:28.996Z,6.70
2019-01-11T02:16:10.809Z,6.80
2019-01-11T02:18:53.128Z,6.53
2019-01-11T02:21:34.752Z,6.87
2019-01-11T02:24:16.517Z,7.60
2019-01-11T02:26:57.897Z,6.67
2019-01-11T02:29:40.324Z,7.30
2019-01-11T02:32:21.819Z,7.13
2019-01-11T02:35:03.205Z,7.40
2019-01-11T02:37:44.767Z,7.37
2019-01-11T02:40:26.237Z,8.50
2019-01-11T02:43:08.549Z,6.93
2019-01-11T02:45:50.480Z,7.17
2019-01-11T02:48:32.439Z,7.13
2019-01-11T02:51:14.030Z,6.77
2019-01-11T02:53:56.348Z,7.13
2019-01-11T02:56:37.997Z,7.47
2019-01-11T02:59:20.073Z,6.53
2019-01-11T03:02:01.636Z,7.07
2019-01-11T03:04:43.517Z,6.97
2019-01-11T03:07:25.097Z,7.00
2019-01-11T03:10:07.506Z,6.70
2019-01-11T03:12:49.765Z,7.23
2019-01-11T03:15:31.585Z,6.40
2019-01-11T03:18:13.841Z,6.73
2019-01-11T03:20:55.569Z,7.20
2019-01-11T03:23:37.433Z,7.13
2019-01-11T03:26:19.670Z,7.23
2019-01-11T03:29:00.092Z,7.13
2019-01-11T03:31:49.375Z,6.57
2019-01-11T03:34:32.161Z,6.80
2019-01-11T03:37:14.476Z,6.90
2019-01-11T03:39:58.097Z,6.77
2019-01-11T03:42:40.447Z,6.80
2019-01-11T03:45:21.901Z,6.87
2019-01-11T03:48:03.453Z,6.53
2019-01-11T03:50:45.778Z,7.07
2019-01-11T03:53:27.331Z,6.17
2019-01-11T03:56:09.496Z,6.03
2019-01-11T03:58:50.960Z,5.83
2019-01-11T04:01:32.678Z,6.63
2019-01-11T04:04:14.792Z,6.30
2019-01-11T04:06:57.117Z,6.00
2019-01-11T04:09:39.025Z,6.40
2019-01-11T04:12:21.254Z,6.00
2019-01-11T04:15:03.221Z,5.87
2019-01-11T04:17:46.972Z,5.83
2019-01-11T04:20:29.032Z,6.33
2019-01-11T04:23:11.257Z,6.87
2019-01-11T04:25:53.667Z,6.13
2019-01-11T04:28:37.839Z,6.80
2019-01-11T04:31:19.820Z,7.47
2019-01-11T04:34:01.730Z,7.40
2019-01-11T04:36:43.198Z,6.53
2019-01-11T04:39:24.921Z,6.60
2019-01-11T04:42:07.142Z,6.77
2019-01-11T04:44:49.598Z,6.80
2019-01-11T04:47:31.726Z,6.90
2019-01-11T04:50:13.494Z,6.87
2019-01-11T04:52:55.642Z,6.93
2019-01-11T04:55:37.538Z,6.77
2019-01-11T05:01:19.405Z,6.23
2019-01-11T05:06:59.985Z,6.83
2019-01-11T05:09:42.072Z,6.43
2019-01-11T05:12:23.520Z,6.73
2019-01-11T05:15:05.820Z,6.30
2019-01-11T05:17:48.188Z,6.13
2019-01-11T05:20:30.098Z,6.40
2019-01-11T05:23:11.649Z,6.00
2019-01-11T05:25:54.121Z,5.83
2019-01-11T05:31:25.241Z,5.90
2019-01-11T05:34:07.264Z,6.60
2019-01-11T05:36:49.361Z,6.20
2019-01-11T05:39:31.280Z,5.77
2019-01-11T05:42:12.894Z,7.00
2019-01-11T05:44:55.084Z,6.40
2019-01-11T05:47:37.342Z,6.63
2019-01-11T05:50:24.034Z,6.90
2019-01-11T05:56:35.141Z,6.23
2019-01-11T05:59:17.082Z,7.20
2019-01-11T06:01:59.473Z,6.67
2019-01-11T06:04:44.871Z,7.00
2019-01-11T06:07:46.167Z,7.63
2019-01-11T06:10:28.016Z,6.60
2019-01-11T06:13:10.116Z,6.73
2019-01-11T06:15:52.282Z,6.40
2019-01-11T06:18:34.416Z,6.43
2019-01-11T06:21:16.388Z,7.20
2019-01-11T06:23:57.943Z,7.17
2019-01-11T06:26:40.828Z,7.03
2019-01-11T06:29:23.108Z,7.23
2019-01-11T06:32:05.007Z,6.67
2019-01-11T06:34:47.496Z,7.10
2019-01-11T06:37:29.848Z,6.60
2019-01-11T06:40:11.417Z,7.47
2019-01-11T06:42:53.129Z,7.70
2019-01-11T06:45:35.371Z,6.97
2019-01-11T06:48:36.647Z,7.20
2019-01-11T06:51:19.101Z,7.03
2019-01-11T06:54:00.620Z,7.20
2019-01-11T06:56:42.119Z,7.70
2019-01-11T06:59:24.481Z,7.97
2019-01-11T07:02:06.713Z,7.90
2019-01-11T07:04:49.161Z,8.27
2019-01-11T07:07:30.974Z,7.57
2019-01-11T07:10:12.997Z,7.47
2019-01-11T07:12:55.012Z,7.33
2019-01-11T07:15:37.335Z,7.23
2019-01-11T07:18:18.921Z,7.00
2019-01-11T07:21:01.237Z,7.43
2019-01-11T07:23:43.385Z,7.07
2019-01-11T07:26:25.589Z,7.67
2019-01-11T07:29:07.656Z,8.47
2019-01-11T07:31:50.090Z,7.63
2019-01-11T07:34:32.239Z,7.87
2019-01-11T07:37:14.642Z,8.00
2019-01-11T07:39:58.735Z,8.27
2019-01-11T07:42:40.649Z,7.67
2019-01-11T07:45:22.587Z,7.40
2019-01-11T07:48:04.821Z,6.43
2019-01-11T07:50:49.403Z,6.27
2019-01-11T07:53:30.589Z,6.37
2019-01-11T07:56:12.887Z,6.50
2019-01-11T07:58:54.792Z,6.20
2019-01-11T08:01:37.076Z,6.77
2019-01-11T08:04:19.109Z,8.50
2019-01-11T08:07:01.313Z,6.60
2019-01-11T08:09:43.101Z,6.83
2019-01-11T08:12:25.005Z,7.40
2019-01-11T08:15:06.965Z,7.10
2019-01-11T08:17:48.788Z,7.70
2019-01-11T08:20:31.572Z,5.90
2019-01-11T08:23:13.259Z,6.33
2019-01-11T08:25:55.475Z,6.30
2019-01-11T08:28:37.579Z,6.77
2019-01-11T08:31:19.910Z,6.60
2019-01-11T08:34:02.011Z,6.87
2019-01-11T08:36:43.933Z,6.70
2019-01-11T08:39:32.264Z,6.87
2019-01-11T08:42:08.997Z,6.77
2019-01-11T08:44:51.321Z,7.07
2019-01-11T08:47:33.713Z,6.90
2019-01-11T08:50:15.294Z,7.17
2019-01-11T08:52:57.396Z,7.37
2019-01-11T08:55:39.524Z,7.20
2019-01-11T08:58:21.672Z,7.30
2019-01-11T09:01:03.828Z,7.13
2019-01-11T09:03:46.212Z,7.30
2019-01-11T09:06:28.026Z,7.93
2019-01-11T09:09:08.817Z,7.43
2019-01-11T09:11:58.084Z,7.40
2019-01-11T09:14:48.282Z,7.87
2019-01-11T09:21:15.796Z,6.60
2019-01-11T09:24:05.151Z,7.43
2019-01-11T09:26:54.516Z,7.83
2019-01-11T09:32:59.795Z,6.93
2019-01-11T09:35:49.148Z,6.90
2019-01-11T09:38:38.424Z,7.00
2019-01-11T09:41:27.750Z,7.87
2019-01-11T09:44:17.016Z,7.40
2019-01-11T09:47:06.318Z,8.63
2019-01-11T09:49:55.608Z,8.20
2019-01-11T09:53:04.302Z,9.30
2019-01-11T09:55:53.697Z,9.87
2019-01-11T09:58:43.045Z,8.93
2019-01-11T10:01:32.445Z,9.00
2019-01-11T10:07:32.406Z,9.57
2019-01-11T10:10:14.525Z,9.20
2019-01-11T10:12:56.893Z,9.37
2019-01-11T10:15:39.089Z,9.23
2019-01-11T10:18:21.153Z,10.33
2019-01-11T10:21:03.209Z,8.63
2019-01-11T10:23:45.549Z,8.63
2019-01-11T10:26:27.792Z,11.33
2019-01-11T10:29:09.689Z,8.20
2019-01-11T10:31:51.690Z,8.07
2019-01-11T10:34:33.589Z,8.03
2019-01-11T10:37:15.274Z,7.80
2019-01-11T10:39:57.710Z,7.27
2019-01-11T10:42:39.952Z,7.00
2019-01-11T10:45:22.105Z,7.40
2019-01-11T10:48:04.161Z,8.10
2019-01-11T10:50:45.573Z,7.90
2019-01-11T10:53:27.764Z,7.47
2019-01-11T10:56:12.065Z,8.10
2019-01-11T10:58:54.302Z,10.10
2019-01-11T11:01:36.105Z,8.93
2019-01-11T11:04:18.056Z,11.10
2019-01-11T11:07:00.405Z,8.33
2019-01-11T11:09:42.634Z,7.77
2019-01-11T11:12:24.917Z,8.43
2019-01-11T11:15:06.579Z,9.17
2019-01-11T11:17:48.380Z,11.30
2019-01-11T11:20:30.732Z,10.07
2019-01-11T11:23:12.774Z,8.63
2019-01-11T11:25:54.298Z,8.10
2019-01-11T11:28:36.786Z,8.33
2019-01-11T11:31:19.143Z,7.90
2019-01-11T11:34:00.629Z,8.20
2019-01-11T11:36:42.921Z,7.47
2019-01-11T11:39:25.074Z,7.90
2019-01-11T11:42:06.834Z,6.97
2019-01-11T11:44:48.360Z,8.13
2019-01-11T11:47:29.867Z,7.03
2019-01-11T11:50:12.292Z,7.43
2019-01-11T11:52:54.449Z,7.43
2019-01-11T11:55:36.674Z,7.60
2019-01-11T11:58:18.654Z,7.97
2019-01-11T12:01:00.714Z,10.50
2019-01-11T12:03:42.602Z,11.40
2019-01-11T12:06:24.894Z,8.37
2019-01-11T12:09:06.526Z,8.60
2019-01-11T12:11:48.241Z,8.27
2019-01-11T12:14:30.019Z,8.07
2019-01-11T12:17:11.769Z,8.43
2019-01-11T12:19:57.018Z,8.67
2019-01-11T12:22:36.660Z,8.90
2019-01-11T12:25:18.758Z,8.67
2019-01-11T12:28:01.075Z,8.23
2019-01-11T12:30:43.285Z,8.40
2019-01-11T12:33:25.378Z,8.17
2019-01-11T12:36:07.883Z,8.03
2019-01-11T12:38:50.383Z,8.30
2019-01-11T12:41:32.602Z,8.30
2019-01-11T12:44:14.785Z,8.10
2019-01-11T12:46:57.193Z,7.97
2019-01-11T12:49:39.374Z,8.10
2019-01-11T12:52:21.688Z,7.80
2019-01-11T12:55:03.577Z,7.77
2019-01-11T12:57:45.384Z,7.77
2019-01-11T13:00:27.484Z,8.70
2019-01-11T13:03:07.906Z,8.60
2019-01-11T13:05:57.268Z,8.23
2019-01-11T13:08:46.625Z,8.30
2019-01-11T13:11:35.893Z,8.23
2019-01-11T13:14:25.169Z,8.90
2019-01-11T13:17:14.532Z,8.67
2019-01-11T13:20:04.161Z,8.80
2019-01-11T13:22:53.661Z,8.00
2019-01-11T13:25:43.027Z,8.27
2019-01-11T13:28:32.438Z,8.43
2019-01-11T13:31:21.798Z,7.87
2019-01-11T13:34:11.149Z,8.20
2019-01-11T13:37:00.531Z,8.17
2019-01-11T13:39:49.802Z,8.60
2019-01-11T13:42:39.167Z,8.20
2019-01-11T13:45:20.660Z,8.23
2019-01-11T13:48:03.169Z,8.77
2019-01-11T13:50:45.239Z,8.43
2019-01-11T13:53:27.394Z,7.90
2019-01-11T13:56:09.577Z,8.57
2019-01-11T13:58:51.707Z,9.00
2019-01-11T14:01:33.695Z,9.83
2019-01-11T14:04:15.781Z,8.37
2019-01-11T14:06:57.754Z,7.97
2019-01-11T14:09:39.698Z,7.90
2019-01-11T14:12:21.377Z,10.20
2019-01-11T14:15:03.494Z,8.20
2019-01-11T14:17:45.447Z,7.40
2019-01-11T14:20:27.482Z,7.90
2019-01-11T14:23:09.553Z,7.97
2019-01-11T14:25:51.524Z,8.13
2019-01-11T14:28:33.785Z,8.50
2019-01-11T14:34:48.493Z,8.67
2019-01-11T14:37:32.417Z,7.97
2019-01-11T14:40:14.082Z,8.20
2019-01-11T14:42:56.496Z,7.17
2019-01-11T14:45:39.265Z,7.33
2019-01-11T14:48:21.567Z,7.70
2019-01-11T14:51:03.530Z,7.77
2019-01-11T14:53:45.514Z,7.17
2019-01-11T14:56:27.710Z,7.33
2019-01-11T14:59:09.389Z,7.93
2019-01-11T15:04:34.227Z,7.23
2019-01-11T15:07:16.414Z,7.37
2019-01-11T15:09:58.723Z,7.07
2019-01-11T15:12:40.673Z,7.03
2019-01-11T15:15:22.456Z,6.67
2019-01-11T15:18:04.412Z,7.37
2019-01-11T15:20:46.578Z,7.67
2019-01-11T15:23:28.643Z,7.30
2019-01-11T15:26:10.646Z,6.93
2019-01-11T15:28:52.601Z,7.10
2019-01-11T15:31:34.414Z,7.17
2019-01-11T15:34:16.860Z,6.47
2019-01-11T15:36:59.160Z,7.00
2019-01-11T15:39:41.256Z,6.70
2019-01-11T15:42:23.248Z,7.33
2019-01-11T15:45:05.430Z,7.37
2019-01-11T15:47:47.506Z,7.73
2019-01-11T15:50:29.508Z,7.67
2019-01-11T15:53:11.511Z,7.20
2019-01-11T15:55:53.686Z,7.87
2019-01-11T15:58:35.716Z,7.50
2019-01-11T16:01:17.814Z,7.50
2019-01-11T16:04:01.362Z,7.03
2019-01-11T16:06:42.962Z,7.50
2019-01-11T16:09:25.116Z,7.17
2019-01-11T16:12:06.975Z,7.33
2019-01-11T16:14:49.029Z,6.87
2019-01-11T16:17:30.844Z,9.70
2019-01-11T16:20:12.361Z,8.60
2019-01-11T16:22:54.298Z,9.77
2019-01-11T16:25:36.657Z,7.73
2019-01-11T16:28:18.902Z,7.20
2019-01-11T16:31:00.397Z,7.20
2019-01-11T16:33:42.643Z,6.73
2019-01-11T16:36:24.829Z,6.83
2019-01-11T16:39:06.826Z,7.60
2019-01-11T16:41:48.785Z,8.03
2019-01-11T16:44:30.793Z,7.20
2019-01-11T16:47:13.042Z,7.23
2019-01-11T16:49:54.850Z,7.40
2019-01-11T16:52:36.906Z,11.13
2019-01-11T16:55:19.144Z,9.10
2019-01-11T16:58:00.931Z,7.20
2019-01-11T17:00:42.508Z,7.37
2019-01-11T17:03:24.364Z,7.53
2019-01-11T17:06:05.962Z,7.47
2019-01-11T17:08:50.123Z,7.30
2019-01-11T17:11:31.673Z,7.53
2019-01-11T17:14:14.070Z,6.93
2019-01-11T17:16:56.353Z,7.47
2019-01-11T17:19:38.332Z,8.40
2019-01-11T17:22:19.870Z,7.83
2019-01-11T17:25:02.165Z,8.33
2019-01-11T17:27:44.173Z,7.60
2019-01-11T17:30:26.335Z,8.13
2019-01-11T17:33:08.770Z,8.30
2019-01-11T17:35:50.607Z,8.27
2019-01-11T17:38:32.700Z,8.10
2019-01-11T17:41:14.678Z,8.47
2019-01-11T17:43:56.641Z,7.40
2019-01-11T17:46:38.227Z,8.00
2019-01-11T17:49:20.440Z,7.83
2019-01-11T17:52:02.076Z,7.47
2019-01-11T17:54:44.313Z,7.60
2019-01-11T17:57:26.461Z,7.33
2019-01-11T18:00:08.944Z,7.47
2019-01-11T18:02:50.561Z,7.13
2019-01-11T18:05:32.419Z,8.10
2019-01-11T18:08:14.650Z,7.97
2019-01-11T18:10:56.703Z,7.97
2019-01-11T18:13:38.677Z,7.17
2019-01-11T18:16:20.559Z,7.30
2019-01-11T18:19:02.158Z,7.13
2019-01-11T18:21:44.658Z,7.10
2019-01-11T18:24:26.474Z,7.17
2019-01-11T18:27:08.923Z,7.50
2019-01-11T18:29:51.279Z,7.70
2019-01-11T18:32:33.466Z,8.37
2019-01-11T18:35:15.013Z,6.73
2019-01-11T18:37:56.666Z,7.73
2019-01-11T18:40:38.723Z,7.50
2019-01-11T18:43:20.806Z,7.40
2019-01-11T18:46:03.191Z,7.73
2019-01-11T18:48:45.282Z,8.03
2019-01-11T18:51:27.421Z,7.40
2019-01-11T18:54:09.518Z,10.30
2019-01-11T18:56:51.525Z,9.60
2019-01-11T18:59:33.124Z,9.67
2019-01-11T19:02:14.686Z,11.10
2019-01-11T19:04:56.912Z,8.97
2019-01-11T19:07:45.640Z,8.80
2019-01-11T19:10:22.347Z,11.63
2019-01-11T19:13:04.300Z,11.67
2019-01-11T19:15:46.128Z,8.47
2019-01-11T19:18:28.601Z,7.80
2019-01-11T19:21:10.689Z,8.03
2019-01-11T19:23:52.533Z,7.73
2019-01-11T19:26:34.213Z,7.60
2019-01-11T19:29:16.550Z,7.17
2019-01-11T19:31:58.430Z,7.20
2019-01-11T19:34:40.641Z,7.77
2019-01-11T19:37:22.469Z,7.57
2019-01-11T19:40:04.488Z,8.67
2019-01-11T19:42:47.592Z,8.60
2019-01-11T19:45:29.240Z,8.13
2019-01-11T19:48:11.247Z,7.27
2019-01-11T19:50:53.476Z,7.50
2019-01-11T19:53:35.270Z,7.17
2019-01-11T19:56:17.498Z,7.33
2019-01-11T19:58:59.466Z,8.80
2019-01-11T20:01:41.444Z,8.17
2019-01-11T20:04:22.988Z,8.50
2019-01-11T20:07:04.933Z,8.47
2019-01-11T20:09:46.957Z,7.93
2019-01-11T20:12:29.048Z,8.03
2019-01-11T20:15:11.026Z,8.93
2019-01-11T20:17:52.786Z,8.43
2019-01-11T20:20:34.401Z,8.57
2019-01-11T20:23:16.722Z,7.97
2019-01-11T20:25:58.475Z,8.30
2019-01-11T20:28:40.447Z,7.63
2019-01-11T20:31:22.834Z,7.70
2019-01-11T20:34:05.336Z,9.00
2019-01-11T20:36:47.568Z,7.17
2019-01-11T20:39:29.469Z,7.23
2019-01-11T20:42:11.769Z,7.47
2019-01-11T20:44:55.508Z,7.23
2019-01-11T20:47:39.217Z,7.53
2019-01-11T20:50:21.138Z,7.43
2019-01-11T20:53:02.963Z,7.73
2019-01-11T20:55:45.038Z,7.43
2019-01-11T20:58:27.450Z,7.70
2019-01-11T21:01:10.004Z,8.70
2019-01-11T21:03:51.541Z,7.90
2019-01-11T21:06:33.622Z,8.17
2019-01-11T21:09:15.721Z,8.83
2019-01-11T21:11:57.528Z,7.80
2019-01-11T21:14:39.665Z,7.17
2019-01-11T21:17:21.814Z,6.83
2019-01-11T21:20:03.783Z,6.97
2019-01-11T21:22:45.639Z,7.50
2019-01-11T21:25:27.689Z,6.93
2019-01-11T21:28:09.990Z,6.80
2019-01-11T21:30:57.344Z,6.80
2019-01-11T21:33:36.225Z,7.07
2019-01-11T21:36:18.307Z,6.60
2019-01-11T21:38:59.960Z,6.93
2019-01-11T21:41:41.986Z,7.20
2019-01-11T21:44:24.472Z,8.13
2019-01-11T21:47:06.432Z,6.93
2019-01-11T21:49:48.874Z,7.83
2019-01-11T21:52:31.210Z,7.33
2019-01-11T21:55:13.724Z,6.87
2019-01-11T21:57:55.804Z,7.03
2019-01-11T22:00:38.196Z,8.20
2019-01-11T22:03:20.123Z,7.50
2019-01-11T22:06:01.965Z,8.57
2019-01-11T22:08:44.246Z,7.40
2019-01-11T22:14:58.988Z,7.17
2019-01-11T22:17:40.928Z,6.97
2019-01-11T22:20:22.998Z,7.10
2019-01-11T22:23:04.768Z,6.83
2019-01-11T22:25:46.807Z,7.53
2019-01-11T22:28:29.311Z,8.50
2019-01-11T22:31:15.292Z,6.90
2019-01-11T22:33:57.759Z,6.27
2019-01-11T22:36:39.825Z,6.87
2019-01-11T22:39:21.865Z,6.57
2019-01-11T22:42:03.969Z,6.83
2019-01-11T22:44:45.797Z,7.10
2019-01-11T22:47:27.953Z,6.53
2019-01-11T22:50:09.977Z,7.20
2019-01-11T22:52:52.508Z,6.93
2019-01-11T22:55:34.656Z,7.50
2019-01-11T22:58:16.733Z,7.43
2019-01-11T23:00:58.823Z,7.17
2019-01-11T23:03:40.698Z,7.17
2019-01-11T23:06:22.701Z,6.43
2019-01-11T23:09:04.578Z,6.30
2019-01-11T23:11:46.805Z,5.93
2019-01-11T23:14:28.780Z,5.60
2019-01-11T23:17:10.552Z,5.70
2019-01-11T23:19:52.333Z,6.63
2019-01-11T23:22:34.648Z,5.30
2019-01-11T23:25:16.186Z,5.23
2019-01-11T23:27:58.722Z,5.10
2019-01-11T23:30:40.638Z,5.60
2019-01-11T23:33:22.793Z,4.80
2019-01-11T23:36:05.100Z,5.40
2019-01-11T23:38:47.067Z,5.00
2019-01-11T23:41:29.515Z,4.80
2019-01-11T23:44:11.523Z,4.63
2019-01-11T23:46:53.661Z,4.70
2019-01-11T23:49:36.100Z,4.80
2019-01-11T23:52:18.057Z,4.83
2019-01-11T23:55:00.013Z,4.60
2019-01-11T23:57:42.431Z,4.77
